Weather at Oscar Machado Zuluaga Airport

Public forecast

Using degrees Celsius for public forecast. Weather courtesy of forecast.io.

Current aviation weather report (METAR) for Oscar Machado Zuluaga Airport

Report is more than 6 hours old.

Retrieved 2020/09/26 01:02 UTC (8 hours ago):

SVCS 260102Z AUTO 08008KT NCD ///// Q1017

Closest aviation forecast (TAF) to Oscar Machado Zuluaga Airport

Closest forecast is Simón Bolívar International Airport, 21.6 nm (39.9 km) NNW. Retrieved 2020/09/26 06:06 UTC (3 hours ago):

TAF SVMI 260400Z 2606/2706 36006KT 9999 SCT016 TX34/2619Z TN23/2607Z BECMG 2606/2610 09005KT 9999 FEW016